sensor_id;sensor_type;location;lat;lon;timestamp;P1;durP1;ratioP1;P2;durP2;ratioP2
63259;SDS011;49390;51.380;0.098;2022-08-11T00:00:04;16.50;;;6.50;;
63259;SDS011;49390;51.380;0.098;2022-08-11T00:02:56;13.85;;;6.68;;
63259;SDS011;49390;51.380;0.098;2022-08-11T00:05:33;12.80;;;6.28;;
63259;SDS011;49390;51.380;0.098;2022-08-11T00:08:48;14.05;;;6.50;;
63259;SDS011;49390;51.380;0.098;2022-08-11T00:11:10;15.35;;;6.80;;
63259;SDS011;49390;51.380;0.098;2022-08-11T00:13:44;12.10;;;6.05;;
63259;SDS011;49390;51.380;0.098;2022-08-11T00:18:44;11.75;;;6.75;;
63259;SDS011;49390;51.380;0.098;2022-08-11T00:21:15;16.00;;;7.00;;
63259;SDS011;49390;51.380;0.098;2022-08-11T00:24:05;13.18;;;7.10;;
63259;SDS011;49390;51.380;0.098;2022-08-11T00:26:35;14.38;;;6.78;;
63259;SDS011;49390;51.380;0.098;2022-08-11T00:29:07;13.68;;;5.70;;
63259;SDS011;49390;51.380;0.098;2022-08-11T00:31:36;10.88;;;6.05;;
63259;SDS011;49390;51.380;0.098;2022-08-11T00:34:10;16.27;;;5.97;;
63259;SDS011;49390;51.380;0.098;2022-08-11T00:39:21;13.55;;;6.30;;
63259;SDS011;49390;51.380;0.098;2022-08-11T00:42:03;12.60;;;5.85;;
63259;SDS011;49390;51.380;0.098;2022-08-11T00:44:47;12.25;;;6.70;;
63259;SDS011;49390;51.380;0.098;2022-08-11T00:47:23;11.35;;;6.38;;
63259;SDS011;49390;51.380;0.098;2022-08-11T00:53:23;13.60;;;6.00;;
63259;SDS011;49390;51.380;0.098;2022-08-11T00:56:10;12.00;;;6.43;;
63259;SDS011;49390;51.380;0.098;2022-08-11T00:59:13;16.13;;;6.60;;
63259;SDS011;49390;51.380;0.098;2022-08-11T01:02:11;11.85;;;6.35;;
63259;SDS011;49390;51.380;0.098;2022-08-11T01:05:05;11.45;;;6.03;;
63259;SDS011;49390;51.380;0.098;2022-08-11T01:13:38;13.47;;;6.20;;
63259;SDS011;49390;51.380;0.098;2022-08-11T01:19:30;11.02;;;6.18;;
63259;SDS011;49390;51.380;0.098;2022-08-11T01:47:33;14.43;;;5.88;;
63259;SDS011;49390;51.380;0.098;2022-08-11T01:50:30;14.90;;;5.75;;
63259;SDS011;49390;51.380;0.098;2022-08-11T02:09:52;12.15;;;6.00;;
63259;SDS011;49390;51.380;0.098;2022-08-11T02:12:34;13.02;;;5.50;;
63259;SDS011;49390;51.380;0.098;2022-08-11T02:20:51;9.82;;;5.70;;
63259;SDS011;49390;51.380;0.098;2022-08-11T02:23:46;11.15;;;5.78;;
63259;SDS011;49390;51.380;0.098;2022-08-11T02:26:40;12.07;;;6.10;;
63259;SDS011;49390;51.380;0.098;2022-08-11T02:29:18;13.43;;;5.83;;
63259;SDS011;49390;51.380;0.098;2022-08-11T02:43:12;12.43;;;6.10;;
63259;SDS011;49390;51.380;0.098;2022-08-11T02:48:57;15.18;;;6.50;;
63259;SDS011;49390;51.380;0.098;2022-08-11T02:54:38;10.52;;;6.05;;
63259;SDS011;49390;51.380;0.098;2022-08-11T02:57:39;12.70;;;6.05;;
63259;SDS011;49390;51.380;0.098;2022-08-11T03:00:18;11.15;;;5.72;;
63259;SDS011;49390;51.380;0.098;2022-08-11T03:03:06;9.60;;;5.75;;
63259;SDS011;49390;51.380;0.098;2022-08-11T03:05:49;11.10;;;5.57;;
63259;SDS011;49390;51.380;0.098;2022-08-11T03:08:30;13.13;;;6.32;;
63259;SDS011;49390;51.380;0.098;2022-08-11T03:14:36;10.45;;;6.13;;
63259;SDS011;49390;51.380;0.098;2022-08-11T03:17:53;14.65;;;6.43;;
63259;SDS011;49390;51.380;0.098;2022-08-11T03:20:48;13.43;;;6.05;;
63259;SDS011;49390;51.380;0.098;2022-08-11T03:23:28;9.18;;;5.63;;
63259;SDS011;49390;51.380;0.098;2022-08-11T03:31:55;10.07;;;6.10;;
63259;SDS011;49390;51.380;0.098;2022-08-11T03:34:29;14.85;;;6.30;;
63259;SDS011;49390;51.380;0.098;2022-08-11T03:46:44;12.00;;;7.13;;
63259;SDS011;49390;51.380;0.098;2022-08-11T03:49:43;12.82;;;6.55;;
63259;SDS011;49390;51.380;0.098;2022-08-11T03:55:09;11.65;;;6.32;;
63259;SDS011;49390;51.380;0.098;2022-08-11T04:09:57;12.23;;;6.50;;
63259;SDS011;49390;51.380;0.098;2022-08-11T04:18:42;10.82;;;6.38;;
63259;SDS011;49390;51.380;0.098;2022-08-11T04:21:25;13.07;;;6.80;;
63259;SDS011;49390;51.380;0.098;2022-08-11T04:30:00;11.70;;;7.22;;
63259;SDS011;49390;51.380;0.098;2022-08-11T04:41:55;13.38;;;6.68;;
63259;SDS011;49390;51.380;0.098;2022-08-11T04:48:38;12.98;;;6.60;;
63259;SDS011;49390;51.380;0.098;2022-08-11T04:51:37;10.82;;;6.60;;
63259;SDS011;49390;51.380;0.098;2022-08-11T04:54:52;11.18;;;6.75;;
63259;SDS011;49390;51.380;0.098;2022-08-11T04:58:00;13.48;;;6.93;;
63259;SDS011;49390;51.380;0.098;2022-08-11T05:01:17;14.82;;;6.40;;
63259;SDS011;49390;51.380;0.098;2022-08-11T05:07:27;12.02;;;6.70;;
63259;SDS011;49390;51.380;0.098;2022-08-11T05:13:28;13.30;;;7.40;;
63259;SDS011;49390;51.380;0.098;2022-08-11T05:16:18;14.63;;;7.13;;
63259;SDS011;49390;51.380;0.098;2022-08-11T05:19:15;14.45;;;7.10;;
63259;SDS011;49390;51.380;0.098;2022-08-11T05:22:06;12.38;;;6.75;;
63259;SDS011;49390;51.380;0.098;2022-08-11T05:25:10;13.25;;;6.88;;
63259;SDS011;49390;51.380;0.098;2022-08-11T05:31:22;13.18;;;6.68;;
63259;SDS011;49390;51.380;0.098;2022-08-11T05:34:18;13.15;;;7.35;;
63259;SDS011;49390;51.380;0.098;2022-08-11T05:37:12;12.20;;;7.00;;
63259;SDS011;49390;51.380;0.098;2022-08-11T05:40:12;12.65;;;6.93;;
63259;SDS011;49390;51.380;0.098;2022-08-11T05:43:01;14.20;;;6.80;;
63259;SDS011;49390;51.380;0.098;2022-08-11T05:46:03;10.70;;;6.15;;
63259;SDS011;49390;51.380;0.098;2022-08-11T05:48:51;15.02;;;7.93;;
63259;SDS011;49390;51.380;0.098;2022-08-11T05:51:39;17.00;;;8.57;;
63259;SDS011;49390;51.380;0.098;2022-08-11T05:54:39;15.90;;;8.63;;
63259;SDS011;49390;51.380;0.098;2022-08-11T05:57:34;18.27;;;9.27;;
63259;SDS011;49390;51.380;0.098;2022-08-11T06:00:20;17.90;;;8.80;;
63259;SDS011;49390;51.380;0.098;2022-08-11T06:02:55;17.45;;;8.90;;
63259;SDS011;49390;51.380;0.098;2022-08-11T06:05:33;19.15;;;9.40;;
63259;SDS011;49390;51.380;0.098;2022-08-11T06:08:11;15.77;;;9.30;;
63259;SDS011;49390;51.380;0.098;2022-08-11T06:10:42;18.48;;;9.75;;
63259;SDS011;49390;51.380;0.098;2022-08-11T06:13:15;19.40;;;9.07;;
63259;SDS011;49390;51.380;0.098;2022-08-11T06:15:48;15.98;;;9.50;;
63259;SDS011;49390;51.380;0.098;2022-08-11T06:18:18;19.67;;;10.65;;
63259;SDS011;49390;51.380;0.098;2022-08-11T06:20:48;24.30;;;11.88;;
63259;SDS011;49390;51.380;0.098;2022-08-11T06:23:21;25.10;;;12.30;;
63259;SDS011;49390;51.380;0.098;2022-08-11T06:25:52;30.83;;;14.02;;
63259;SDS011;49390;51.380;0.098;2022-08-11T06:30:50;31.77;;;13.70;;
63259;SDS011;49390;51.380;0.098;2022-08-11T06:33:20;33.38;;;14.25;;
63259;SDS011;49390;51.380;0.098;2022-08-11T06:36:13;37.28;;;16.30;;
63259;SDS011;49390;51.380;0.098;2022-08-11T06:41:29;38.08;;;15.27;;
63259;SDS011;49390;51.380;0.098;2022-08-11T06:44:13;35.83;;;14.88;;
63259;SDS011;49390;51.380;0.098;2022-08-11T06:46:51;33.53;;;15.15;;
63259;SDS011;49390;51.380;0.098;2022-08-11T06:49:23;35.33;;;14.32;;
63259;SDS011;49390;51.380;0.098;2022-08-11T06:52:19;39.92;;;17.05;;
63259;SDS011;49390;51.380;0.098;2022-08-11T06:55:45;33.92;;;14.45;;
63259;SDS011;49390;51.380;0.098;2022-08-11T06:58:32;28.27;;;14.43;;
63259;SDS011;49390;51.380;0.098;2022-08-11T07:04:20;30.85;;;14.00;;
63259;SDS011;49390;51.380;0.098;2022-08-11T07:07:00;29.55;;;13.18;;
63259;SDS011;49390;51.380;0.098;2022-08-11T07:10:32;30.52;;;13.38;;
63259;SDS011;49390;51.380;0.098;2022-08-11T07:13:24;37.03;;;14.80;;
63259;SDS011;49390;51.380;0.098;2022-08-11T07:16:25;33.90;;;13.32;;
63259;SDS011;49390;51.380;0.098;2022-08-11T07:19:03;34.85;;;13.45;;
63259;SDS011;49390;51.380;0.098;2022-08-11T07:21:52;28.45;;;12.43;;
63259;SDS011;49390;51.380;0.098;2022-08-11T07:24:48;34.42;;;14.77;;
63259;SDS011;49390;51.380;0.098;2022-08-11T07:27:42;35.10;;;14.07;;
63259;SDS011;49390;51.380;0.098;2022-08-11T07:30:36;36.72;;;15.40;;
63259;SDS011;49390;51.380;0.098;2022-08-11T07:33:07;34.28;;;14.10;;
63259;SDS011;49390;51.380;0.098;2022-08-11T07:35:59;35.83;;;14.38;;
63259;SDS011;49390;51.380;0.098;2022-08-11T07:38:32;33.58;;;14.10;;
63259;SDS011;49390;51.380;0.098;2022-08-11T07:41:15;29.90;;;13.40;;
63259;SDS011;49390;51.380;0.098;2022-08-11T07:43:44;28.15;;;12.60;;
63259;SDS011;49390;51.380;0.098;2022-08-11T07:46:16;24.10;;;12.00;;
63259;SDS011;49390;51.380;0.098;2022-08-11T07:49:06;28.52;;;11.68;;
63259;SDS011;49390;51.380;0.098;2022-08-11T07:51:55;26.80;;;12.15;;
63259;SDS011;49390;51.380;0.098;2022-08-11T07:54:41;27.23;;;13.02;;
63259;SDS011;49390;51.380;0.098;2022-08-11T07:57:18;23.60;;;10.82;;
63259;SDS011;49390;51.380;0.098;2022-08-11T08:00:25;20.25;;;11.02;;
63259;SDS011;49390;51.380;0.098;2022-08-11T08:03:18;24.75;;;13.73;;
63259;SDS011;49390;51.380;0.098;2022-08-11T08:06:21;25.33;;;12.57;;
63259;SDS011;49390;51.380;0.098;2022-08-11T08:09:09;24.70;;;13.07;;
63259;SDS011;49390;51.380;0.098;2022-08-11T08:11:58;28.48;;;13.75;;
63259;SDS011;49390;51.380;0.098;2022-08-11T08:14:46;26.40;;;13.63;;
63259;SDS011;49390;51.380;0.098;2022-08-11T08:17:33;24.13;;;14.35;;
63259;SDS011;49390;51.380;0.098;2022-08-11T08:20:44;25.92;;;13.55;;
63259;SDS011;49390;51.380;0.098;2022-08-11T08:23:19;28.83;;;13.70;;
63259;SDS011;49390;51.380;0.098;2022-08-11T08:26:02;29.17;;;14.77;;
63259;SDS011;49390;51.380;0.098;2022-08-11T08:28:52;27.25;;;13.23;;
63259;SDS011;49390;51.380;0.098;2022-08-11T08:31:43;28.58;;;13.75;;
63259;SDS011;49390;51.380;0.098;2022-08-11T08:34:14;26.63;;;14.35;;
63259;SDS011;49390;51.380;0.098;2022-08-11T08:36:44;27.02;;;14.15;;
63259;SDS011;49390;51.380;0.098;2022-08-11T08:39:19;25.10;;;13.10;;
63259;SDS011;49390;51.380;0.098;2022-08-11T08:41:49;28.20;;;14.98;;
63259;SDS011;49390;51.380;0.098;2022-08-11T08:44:21;30.38;;;14.63;;
63259;SDS011;49390;51.380;0.098;2022-08-11T08:47:14;23.23;;;13.05;;
63259;SDS011;49390;51.380;0.098;2022-08-11T08:50:10;24.77;;;14.02;;
63259;SDS011;49390;51.380;0.098;2022-08-11T08:52:53;30.92;;;15.60;;
63259;SDS011;49390;51.380;0.098;2022-08-11T08:55:27;31.80;;;14.10;;
63259;SDS011;49390;51.380;0.098;2022-08-11T08:58:00;24.90;;;13.02;;
63259;SDS011;49390;51.380;0.098;2022-08-11T09:00:36;23.50;;;13.32;;
63259;SDS011;49390;51.380;0.098;2022-08-11T09:03:07;24.35;;;14.27;;
63259;SDS011;49390;51.380;0.098;2022-08-11T09:05:57;27.48;;;14.35;;
63259;SDS011;49390;51.380;0.098;2022-08-11T09:08:25;20.35;;;12.90;;
63259;SDS011;49390;51.380;0.098;2022-08-11T09:10:58;23.80;;;14.25;;
63259;SDS011;49390;51.380;0.098;2022-08-11T09:13:47;26.92;;;14.75;;
63259;SDS011;49390;51.380;0.098;2022-08-11T09:16:33;23.23;;;14.02;;
63259;SDS011;49390;51.380;0.098;2022-08-11T09:19:02;24.63;;;15.23;;
63259;SDS011;49390;51.380;0.098;2022-08-11T09:21:30;23.95;;;14.10;;
63259;SDS011;49390;51.380;0.098;2022-08-11T09:24:17;26.58;;;13.80;;
63259;SDS011;49390;51.380;0.098;2022-08-11T09:27:05;29.08;;;13.88;;
63259;SDS011;49390;51.380;0.098;2022-08-11T09:32:04;22.90;;;12.85;;
63259;SDS011;49390;51.380;0.098;2022-08-11T09:37:04;28.20;;;13.57;;
63259;SDS011;49390;51.380;0.098;2022-08-11T09:40:12;21.02;;;11.48;;
63259;SDS011;49390;51.380;0.098;2022-08-11T09:42:57;19.40;;;11.38;;
63259;SDS011;49390;51.380;0.098;2022-08-11T09:45:47;23.13;;;11.70;;
63259;SDS011;49390;51.380;0.098;2022-08-11T09:48:23;23.98;;;13.52;;
63259;SDS011;49390;51.380;0.098;2022-08-11T09:50:54;21.17;;;11.70;;
63259;SDS011;49390;51.380;0.098;2022-08-11T09:53:26;18.35;;;10.90;;
63259;SDS011;49390;51.380;0.098;2022-08-11T09:56:12;16.58;;;10.65;;
63259;SDS011;49390;51.380;0.098;2022-08-11T09:59:01;16.45;;;11.25;;
63259;SDS011;49390;51.380;0.098;2022-08-11T10:02:17;16.88;;;10.95;;
63259;SDS011;49390;51.380;0.098;2022-08-11T10:04:34;13.68;;;8.45;;
63259;SDS011;49390;51.380;0.098;2022-08-11T10:07:11;17.10;;;10.32;;
63259;SDS011;49390;51.380;0.098;2022-08-11T10:10:02;14.60;;;9.15;;
63259;SDS011;49390;51.380;0.098;2022-08-11T10:12:33;18.95;;;9.10;;
63259;SDS011;49390;51.380;0.098;2022-08-11T10:15:06;17.10;;;9.77;;
63259;SDS011;49390;51.380;0.098;2022-08-11T10:18:03;13.82;;;8.60;;
63259;SDS011;49390;51.380;0.098;2022-08-11T10:20:57;16.67;;;8.70;;
63259;SDS011;49390;51.380;0.098;2022-08-11T10:23:29;16.38;;;9.25;;
63259;SDS011;49390;51.380;0.098;2022-08-11T10:26:31;17.33;;;9.85;;
63259;SDS011;49390;51.380;0.098;2022-08-11T10:29:22;17.80;;;8.88;;
63259;SDS011;49390;51.380;0.098;2022-08-11T10:32:11;20.98;;;9.88;;
63259;SDS011;49390;51.380;0.098;2022-08-11T10:35:06;21.75;;;9.85;;
63259;SDS011;49390;51.380;0.098;2022-08-11T10:37:35;16.90;;;8.35;;
63259;SDS011;49390;51.380;0.098;2022-08-11T10:40:24;15.80;;;9.98;;
63259;SDS011;49390;51.380;0.098;2022-08-11T10:42:58;17.25;;;9.15;;
63259;SDS011;49390;51.380;0.098;2022-08-11T10:45:37;15.18;;;8.95;;
63259;SDS011;49390;51.380;0.098;2022-08-11T10:48:27;14.70;;;8.35;;
63259;SDS011;49390;51.380;0.098;2022-08-11T10:50:57;13.65;;;7.07;;
63259;SDS011;49390;51.380;0.098;2022-08-11T10:53:44;13.35;;;6.63;;
63259;SDS011;49390;51.380;0.098;2022-08-11T10:56:39;14.55;;;7.25;;
63259;SDS011;49390;51.380;0.098;2022-08-11T10:59:27;12.63;;;7.82;;
63259;SDS011;49390;51.380;0.098;2022-08-11T11:01:56;15.68;;;6.45;;
63259;SDS011;49390;51.380;0.098;2022-08-11T11:04:29;11.52;;;6.72;;
63259;SDS011;49390;51.380;0.098;2022-08-11T11:07:07;9.77;;;6.53;;
63259;SDS011;49390;51.380;0.098;2022-08-11T11:09:44;12.88;;;6.40;;
63259;SDS011;49390;51.380;0.098;2022-08-11T11:12:22;8.57;;;5.43;;
63259;SDS011;49390;51.380;0.098;2022-08-11T11:15:10;17.00;;;5.85;;
63259;SDS011;49390;51.380;0.098;2022-08-11T11:18:03;11.50;;;5.40;;
63259;SDS011;49390;51.380;0.098;2022-08-11T11:20:46;11.25;;;6.30;;
63259;SDS011;49390;51.380;0.098;2022-08-11T11:29:13;8.15;;;4.80;;
63259;SDS011;49390;51.380;0.098;2022-08-11T11:35:08;12.45;;;6.78;;
63259;SDS011;49390;51.380;0.098;2022-08-11T11:38:00;12.45;;;4.97;;
63259;SDS011;49390;51.380;0.098;2022-08-11T11:40:32;12.63;;;5.07;;
63259;SDS011;49390;51.380;0.098;2022-08-11T11:43:01;12.05;;;5.65;;
63259;SDS011;49390;51.380;0.098;2022-08-11T11:45:30;11.30;;;5.57;;
63259;SDS011;49390;51.380;0.098;2022-08-11T11:47:59;7.95;;;5.25;;
63259;SDS011;49390;51.380;0.098;2022-08-11T11:50:28;10.02;;;4.75;;
63259;SDS011;49390;51.380;0.098;2022-08-11T11:53:05;8.80;;;5.03;;
63259;SDS011;49390;51.380;0.098;2022-08-11T11:55:35;8.82;;;4.95;;
63259;SDS011;49390;51.380;0.098;2022-08-11T11:58:04;8.75;;;5.00;;
63259;SDS011;49390;51.380;0.098;2022-08-11T12:00:52;11.63;;;4.80;;
63259;SDS011;49390;51.380;0.098;2022-08-11T12:03:39;10.55;;;5.25;;
63259;SDS011;49390;51.380;0.098;2022-08-11T12:06:09;6.65;;;4.22;;
63259;SDS011;49390;51.380;0.098;2022-08-11T12:08:43;8.23;;;4.40;;
63259;SDS011;49390;51.380;0.098;2022-08-11T12:11:15;9.90;;;4.45;;
63259;SDS011;49390;51.380;0.098;2022-08-11T12:14:06;9.60;;;4.70;;
63259;SDS011;49390;51.380;0.098;2022-08-11T12:16:40;9.15;;;4.88;;
63259;SDS011;49390;51.380;0.098;2022-08-11T12:19:12;8.50;;;4.90;;
63259;SDS011;49390;51.380;0.098;2022-08-11T12:21:43;8.52;;;4.78;;
63259;SDS011;49390;51.380;0.098;2022-08-11T12:24:33;9.95;;;4.47;;
63259;SDS011;49390;51.380;0.098;2022-08-11T12:27:21;7.63;;;4.40;;
63259;SDS011;49390;51.380;0.098;2022-08-11T12:29:53;11.00;;;4.15;;
63259;SDS011;49390;51.380;0.098;2022-08-11T12:32:23;7.25;;;4.50;;
63259;SDS011;49390;51.380;0.098;2022-08-11T12:34:57;7.72;;;4.38;;
63259;SDS011;49390;51.380;0.098;2022-08-11T12:37:29;10.55;;;4.28;;
63259;SDS011;49390;51.380;0.098;2022-08-11T12:40:04;8.48;;;4.40;;
63259;SDS011;49390;51.380;0.098;2022-08-11T12:43:18;8.98;;;4.50;;
63259;SDS011;49390;51.380;0.098;2022-08-11T12:46:08;7.72;;;5.00;;
63259;SDS011;49390;51.380;0.098;2022-08-11T12:48:45;9.60;;;4.50;;
63259;SDS011;49390;51.380;0.098;2022-08-11T12:51:38;9.30;;;4.10;;
63259;SDS011;49390;51.380;0.098;2022-08-11T12:57:25;6.43;;;3.78;;
63259;SDS011;49390;51.380;0.098;2022-08-11T13:00:17;8.43;;;4.38;;
63259;SDS011;49390;51.380;0.098;2022-08-11T13:03:06;8.93;;;3.85;;
63259;SDS011;49390;51.380;0.098;2022-08-11T13:05:55;9.57;;;4.38;;
63259;SDS011;49390;51.380;0.098;2022-08-11T13:08:25;6.47;;;4.63;;
63259;SDS011;49390;51.380;0.098;2022-08-11T13:13:45;7.70;;;3.95;;
63259;SDS011;49390;51.380;0.098;2022-08-11T13:16:26;5.43;;;3.90;;
63259;SDS011;49390;51.380;0.098;2022-08-11T13:19:00;7.30;;;4.43;;
63259;SDS011;49390;51.380;0.098;2022-08-11T13:21:29;9.98;;;4.60;;
63259;SDS011;49390;51.380;0.098;2022-08-11T13:23:58;8.60;;;5.00;;
63259;SDS011;49390;51.380;0.098;2022-08-11T13:26:30;8.13;;;4.57;;
63259;SDS011;49390;51.380;0.098;2022-08-11T13:29:17;7.68;;;4.65;;
63259;SDS011;49390;51.380;0.098;2022-08-11T13:31:47;7.55;;;4.43;;
63259;SDS011;49390;51.380;0.098;2022-08-11T13:34:15;8.30;;;4.50;;
63259;SDS011;49390;51.380;0.098;2022-08-11T13:36:50;9.80;;;5.05;;
63259;SDS011;49390;51.380;0.098;2022-08-11T13:39:21;10.65;;;5.40;;
63259;SDS011;49390;51.380;0.098;2022-08-11T13:41:58;9.20;;;4.97;;
63259;SDS011;49390;51.380;0.098;2022-08-11T13:44:28;11.07;;;6.00;;
63259;SDS011;49390;51.380;0.098;2022-08-11T13:46:58;11.45;;;4.30;;
63259;SDS011;49390;51.380;0.098;2022-08-11T13:49:31;9.63;;;4.93;;
63259;SDS011;49390;51.380;0.098;2022-08-11T13:52:10;6.15;;;4.00;;
63259;SDS011;49390;51.380;0.098;2022-08-11T13:54:41;10.65;;;4.78;;
63259;SDS011;49390;51.380;0.098;2022-08-11T13:57:11;10.15;;;5.40;;
63259;SDS011;49390;51.380;0.098;2022-08-11T14:00:07;12.23;;;7.57;;
63259;SDS011;49390;51.380;0.098;2022-08-11T14:02:53;10.77;;;5.15;;
63259;SDS011;49390;51.380;0.098;2022-08-11T14:05:30;8.98;;;4.82;;
63259;SDS011;49390;51.380;0.098;2022-08-11T14:08:08;7.13;;;4.00;;
63259;SDS011;49390;51.380;0.098;2022-08-11T14:11:01;7.97;;;3.97;;
63259;SDS011;49390;51.380;0.098;2022-08-11T14:14:10;8.63;;;5.78;;
63259;SDS011;49390;51.380;0.098;2022-08-11T14:16:49;8.10;;;5.10;;
63259;SDS011;49390;51.380;0.098;2022-08-11T14:19:21;12.45;;;6.25;;
63259;SDS011;49390;51.380;0.098;2022-08-11T14:21:52;9.80;;;5.65;;
63259;SDS011;49390;51.380;0.098;2022-08-11T14:24:38;6.57;;;4.10;;
63259;SDS011;49390;51.380;0.098;2022-08-11T14:27:10;10.60;;;6.10;;
63259;SDS011;49390;51.380;0.098;2022-08-11T14:30:00;8.45;;;4.35;;
63259;SDS011;49390;51.380;0.098;2022-08-11T14:32:31;6.32;;;4.22;;
63259;SDS011;49390;51.380;0.098;2022-08-11T14:35:18;7.90;;;5.00;;
63259;SDS011;49390;51.380;0.098;2022-08-11T14:37:47;8.05;;;4.60;;
63259;SDS011;49390;51.380;0.098;2022-08-11T14:40:17;10.30;;;5.60;;
63259;SDS011;49390;51.380;0.098;2022-08-11T14:43:04;10.05;;;6.10;;
63259;SDS011;49390;51.380;0.098;2022-08-11T14:46:10;10.30;;;6.15;;
63259;SDS011;49390;51.380;0.098;2022-08-11T14:48:59;9.70;;;5.70;;
63259;SDS011;49390;51.380;0.098;2022-08-11T14:51:28;9.15;;;6.50;;
63259;SDS011;49390;51.380;0.098;2022-08-11T14:53:56;8.65;;;5.38;;
63259;SDS011;49390;51.380;0.098;2022-08-11T14:56:46;8.63;;;4.75;;
63259;SDS011;49390;51.380;0.098;2022-08-11T14:59:14;11.55;;;5.05;;
63259;SDS011;49390;51.380;0.098;2022-08-11T15:01:43;7.18;;;4.72;;
63259;SDS011;49390;51.380;0.098;2022-08-11T15:04:30;7.80;;;4.68;;
63259;SDS011;49390;51.380;0.098;2022-08-11T15:07:03;6.88;;;4.53;;
63259;SDS011;49390;51.380;0.098;2022-08-11T15:09:44;10.00;;;4.63;;
63259;SDS011;49390;51.380;0.098;2022-08-11T15:12:34;7.93;;;4.90;;
63259;SDS011;49390;51.380;0.098;2022-08-11T15:15:06;9.30;;;4.35;;
63259;SDS011;49390;51.380;0.098;2022-08-11T15:17:55;6.63;;;4.10;;
63259;SDS011;49390;51.380;0.098;2022-08-11T15:20:27;12.05;;;4.20;;
63259;SDS011;49390;51.380;0.098;2022-08-11T15:23:20;8.65;;;5.32;;
63259;SDS011;49390;51.380;0.098;2022-08-11T15:26:08;7.20;;;4.85;;
63259;SDS011;49390;51.380;0.098;2022-08-11T15:28:46;7.82;;;4.65;;
63259;SDS011;49390;51.380;0.098;2022-08-11T15:31:35;7.75;;;4.00;;
63259;SDS011;49390;51.380;0.098;2022-08-11T15:34:24;8.10;;;3.70;;
63259;SDS011;49390;51.380;0.098;2022-08-11T15:37:14;8.48;;;4.20;;
63259;SDS011;49390;51.380;0.098;2022-08-11T15:39:57;6.88;;;4.10;;
63259;SDS011;49390;51.380;0.098;2022-08-11T15:43:03;8.48;;;3.90;;
63259;SDS011;49390;51.380;0.098;2022-08-11T15:45:55;7.85;;;4.60;;
63259;SDS011;49390;51.380;0.098;2022-08-11T15:53:46;10.15;;;5.57;;
63259;SDS011;49390;51.380;0.098;2022-08-11T15:56:26;6.60;;;4.22;;
63259;SDS011;49390;51.380;0.098;2022-08-11T15:58:58;13.00;;;6.18;;
63259;SDS011;49390;51.380;0.098;2022-08-11T16:02:06;9.18;;;4.90;;
63259;SDS011;49390;51.380;0.098;2022-08-11T16:04:58;8.40;;;4.80;;
63259;SDS011;49390;51.380;0.098;2022-08-11T16:07:30;9.55;;;4.72;;
63259;SDS011;49390;51.380;0.098;2022-08-11T16:12:59;12.07;;;5.70;;
63259;SDS011;49390;51.380;0.098;2022-08-11T16:15:36;8.77;;;5.10;;
63259;SDS011;49390;51.380;0.098;2022-08-11T16:18:30;6.50;;;4.60;;
63259;SDS011;49390;51.380;0.098;2022-08-11T16:21:15;8.57;;;5.63;;
63259;SDS011;49390;51.380;0.098;2022-08-11T16:24:03;13.20;;;9.35;;
63259;SDS011;49390;51.380;0.098;2022-08-11T16:26:56;13.05;;;8.60;;
63259;SDS011;49390;51.380;0.098;2022-08-11T16:29:39;10.57;;;6.43;;
63259;SDS011;49390;51.380;0.098;2022-08-11T16:32:18;10.70;;;5.47;;
63259;SDS011;49390;51.380;0.098;2022-08-11T16:34:51;8.88;;;4.90;;
63259;SDS011;49390;51.380;0.098;2022-08-11T16:37:42;9.75;;;5.55;;
63259;SDS011;49390;51.380;0.098;2022-08-11T16:40:30;7.07;;;4.90;;
63259;SDS011;49390;51.380;0.098;2022-08-11T16:43:01;8.25;;;4.57;;
63259;SDS011;49390;51.380;0.098;2022-08-11T16:45:50;7.65;;;4.70;;
63259;SDS011;49390;51.380;0.098;2022-08-11T16:48:40;9.80;;;4.55;;
63259;SDS011;49390;51.380;0.098;2022-08-11T16:53:39;8.57;;;4.55;;
63259;SDS011;49390;51.380;0.098;2022-08-11T16:56:51;7.10;;;4.22;;
63259;SDS011;49390;51.380;0.098;2022-08-11T16:59:23;7.78;;;4.68;;
63259;SDS011;49390;51.380;0.098;2022-08-11T17:02:06;7.65;;;4.78;;
63259;SDS011;49390;51.380;0.098;2022-08-11T17:04:50;10.98;;;5.03;;
63259;SDS011;49390;51.380;0.098;2022-08-11T17:07:40;9.57;;;4.78;;
63259;SDS011;49390;51.380;0.098;2022-08-11T17:10:37;8.82;;;5.50;;
63259;SDS011;49390;51.380;0.098;2022-08-11T17:13:36;11.02;;;5.85;;
63259;SDS011;49390;51.380;0.098;2022-08-11T17:16:10;9.05;;;5.30;;
63259;SDS011;49390;51.380;0.098;2022-08-11T17:19:03;6.97;;;4.70;;
63259;SDS011;49390;51.380;0.098;2022-08-11T17:24:27;7.55;;;4.78;;
63259;SDS011;49390;51.380;0.098;2022-08-11T17:26:58;10.75;;;6.40;;
63259;SDS011;49390;51.380;0.098;2022-08-11T17:29:41;7.63;;;4.88;;
63259;SDS011;49390;51.380;0.098;2022-08-11T17:32:24;7.20;;;4.97;;
63259;SDS011;49390;51.380;0.098;2022-08-11T17:35:24;11.73;;;5.78;;
63259;SDS011;49390;51.380;0.098;2022-08-11T17:38:01;7.97;;;5.60;;
63259;SDS011;49390;51.380;0.098;2022-08-11T17:40:48;15.95;;;8.60;;
63259;SDS011;49390;51.380;0.098;2022-08-11T17:43:50;11.63;;;5.43;;
63259;SDS011;49390;51.380;0.098;2022-08-11T17:46:38;11.70;;;8.13;;
63259;SDS011;49390;51.380;0.098;2022-08-11T17:49:32;7.60;;;5.10;;
63259;SDS011;49390;51.380;0.098;2022-08-11T17:52:06;8.50;;;5.60;;
63259;SDS011;49390;51.380;0.098;2022-08-11T17:55:01;13.35;;;5.65;;
63259;SDS011;49390;51.380;0.098;2022-08-11T17:58:09;7.30;;;4.78;;
63259;SDS011;49390;51.380;0.098;2022-08-11T18:00:58;13.75;;;7.20;;
63259;SDS011;49390;51.380;0.098;2022-08-11T18:03:35;11.13;;;5.00;;
63259;SDS011;49390;51.380;0.098;2022-08-11T18:06:21;9.82;;;4.50;;
63259;SDS011;49390;51.380;0.098;2022-08-11T18:09:03;10.88;;;4.85;;
63259;SDS011;49390;51.380;0.098;2022-08-11T18:11:57;8.60;;;5.05;;
63259;SDS011;49390;51.380;0.098;2022-08-11T18:14:46;7.63;;;4.38;;
63259;SDS011;49390;51.380;0.098;2022-08-11T18:17:35;7.03;;;4.22;;
63259;SDS011;49390;51.380;0.098;2022-08-11T18:20:23;8.68;;;4.30;;
63259;SDS011;49390;51.380;0.098;2022-08-11T18:23:15;27.48;;;16.30;;
63259;SDS011;49390;51.380;0.098;2022-08-11T18:26:15;9.38;;;5.35;;
63259;SDS011;49390;51.380;0.098;2022-08-11T18:29:06;9.40;;;5.00;;
63259;SDS011;49390;51.380;0.098;2022-08-11T18:31:55;8.93;;;5.03;;
63259;SDS011;49390;51.380;0.098;2022-08-11T18:34:48;12.82;;;6.80;;
63259;SDS011;49390;51.380;0.098;2022-08-11T18:37:37;11.27;;;5.35;;
63259;SDS011;49390;51.380;0.098;2022-08-11T18:40:28;10.63;;;5.80;;
63259;SDS011;49390;51.380;0.098;2022-08-11T18:43:18;30.65;;;17.38;;
63259;SDS011;49390;51.380;0.098;2022-08-11T18:46:06;9.43;;;4.40;;
63259;SDS011;49390;51.380;0.098;2022-08-11T18:49:00;10.10;;;5.70;;
63259;SDS011;49390;51.380;0.098;2022-08-11T18:52:15;12.68;;;5.90;;
63259;SDS011;49390;51.380;0.098;2022-08-11T18:55:04;7.82;;;4.97;;
63259;SDS011;49390;51.380;0.098;2022-08-11T18:57:59;9.95;;;4.90;;
63259;SDS011;49390;51.380;0.098;2022-08-11T19:00:48;6.97;;;4.30;;
63259;SDS011;49390;51.380;0.098;2022-08-11T19:03:36;8.02;;;4.10;;
63259;SDS011;49390;51.380;0.098;2022-08-11T19:06:38;8.60;;;4.45;;
63259;SDS011;49390;51.380;0.098;2022-08-11T19:09:27;7.90;;;4.72;;
63259;SDS011;49390;51.380;0.098;2022-08-11T19:12:16;7.30;;;4.30;;
63259;SDS011;49390;51.380;0.098;2022-08-11T19:15:05;7.38;;;4.50;;
63259;SDS011;49390;51.380;0.098;2022-08-11T19:17:56;7.22;;;4.18;;
63259;SDS011;49390;51.380;0.098;2022-08-11T19:20:43;9.80;;;5.95;;
63259;SDS011;49390;51.380;0.098;2022-08-11T19:23:32;6.38;;;4.75;;
63259;SDS011;49390;51.380;0.098;2022-08-11T19:26:23;9.98;;;5.07;;